AGROMETEOROLOŠKI PORTAL
Vinorodna pokrajina

Temelj dobrega kmetovanja.

Pregled podatkov za lokacijo Stročja vas, meteorološka postaja 517287

Pregled senzorjev na lokaciji

ID Ime Zadnja
vrednost
Datum in čas
meritve
(lokalni čas)
Tip
senzorja
7542 Omočenost lista (1,5 m) (U) 0 U 15.4.2024 02:00 A730WET
7543 Padavine (mm) 0 mm 15.4.2024 02:00 Generic 0.2 mm
7541 Relativna zračna vlaga (2 m) (%RH) 43 %RH 15.4.2024 02:00 50YA
7540 Temperatura (2 m) (°C) 20,1 °C 15.4.2024 02:00 50YA
7539 Hitrost vetra (3 m) (km/h) 5 km/h 15.4.2024 02:00 Generic 200 km/h

Pregled podatkov zadnjih 24 ur

Zap.
št.
Datum in čas
(lokalni čas)
Stročja vas
Omočenost
lista
(1,5
m)
Padavine Relativna
zračna
vlaga
(2
m)
Temperatura
(2
m)
Hitrost
vetra
(3
m)
1 15.4.2024 02:00 0 0 43 20,1 4,8
2 15.4.2024 01:30 0 0 42,6 20 2,5
3 15.4.2024 01:00 0 0 40,7 20,7 5,3
4 15.4.2024 00:30 0 0 40,6 20,9 5,3
5 15.4.2024 00:00 0 0 40,6 21,3 8,2
6 14.4.2024 23:30 0 0 40,3 21,6 8,2
7 14.4.2024 23:00 0 0 40,3 21,8 8,8
8 14.4.2024 22:30 0 0 40,6 22,1 6,2
9 14.4.2024 22:00 0 0 41,3 22,3 5,5
10 14.4.2024 21:30 0 0 41,7 22,8 6,7
11 14.4.2024 21:00 0 0 41,8 23,3 6,1
12 14.4.2024 20:30 0 0 41,2 23,9 5,8
13 14.4.2024 20:00 0 0 38,3 25 5
14 14.4.2024 19:30 0 0 37,5 26,1 5,1
15 14.4.2024 19:00 0 0 35,5 27,2 5
16 14.4.2024 18:30 0 0 35,6 28,5 4,9
17 14.4.2024 18:00 0 0 36,1 29,2 5,5
18 14.4.2024 17:30 0 0 36,9 29,4 4,9
19 14.4.2024 17:00 0 0 39 29,5 5,3
20 14.4.2024 16:30 0 0 41,3 29,3 4,8
21 14.4.2024 16:00 0 0 41,7 29,1 5
22 14.4.2024 15:30 0 0 42,9 29,1 5,5
23 14.4.2024 15:00 0 0 43,8 29 5,3
24 14.4.2024 14:30 0 0 41,7 28,8 5,3
25 14.4.2024 14:00 0 0 42,8 28,5 4
26 14.4.2024 13:30 0 0 44,8 27,7 4,6
27 14.4.2024 13:00 0 0 46,3 27,2 5,1
28 14.4.2024 12:30 0 0 48,5 26,3 4,6
29 14.4.2024 12:00 0 0 48,3 25,4 4,6
30 14.4.2024 11:30 0 0 48 25,1 6,4
31 14.4.2024 11:00 0 0 49,8 24 6,1
32 14.4.2024 10:30 0 0 52,3 22,9 5,1
33 14.4.2024 10:00 0 0 56,9 22 4,7
34 14.4.2024 09:30 0 0 69 19,2 2
35 14.4.2024 09:00 0 0 72,9 17,1 1,6
36 14.4.2024 08:30 0 0 78,1 14,9 2
37 14.4.2024 08:00 0 0 81,7 13,4 3,9
38 14.4.2024 07:30 1 0 77 14,6 0,5
39 14.4.2024 07:00 9 0 78,6 13,5 1,2
40 14.4.2024 06:30 10 0 69,8 15,2 3,3
41 14.4.2024 06:00 10 0 81,5 12,8 2,4
42 14.4.2024 05:30 10 0 80,7 13 1,5
43 14.4.2024 05:00 6 0 70,4 15,1 1
44 14.4.2024 04:30 9 0 71,3 15,1 2,6
45 14.4.2024 04:00 9 0 76,1 14,2 2,1
46 14.4.2024 03:30 2 0 72,3 15,1 2,2